createdAt,value
2023-03-17T00:01:54.088Z,11.00
2023-03-17T00:04:22.490Z,11.00
2023-03-17T00:06:49.465Z,11.00
2023-03-17T00:09:18.173Z,11.00
2023-03-17T00:11:46.357Z,11.00
2023-03-17T00:14:13.243Z,11.00
2023-03-17T00:16:43.801Z,11.00
2023-03-17T00:19:20.083Z,11.00
2023-03-17T00:26:43.472Z,11.00
2023-03-17T00:29:10.625Z,11.00
2023-03-17T00:31:39.127Z,11.00
2023-03-17T00:36:35.801Z,10.90
2023-03-17T00:39:06.461Z,10.90
2023-03-17T00:41:34.192Z,11.00
2023-03-17T00:46:35.711Z,10.90
2023-03-17T00:49:24.320Z,10.90
2023-03-17T00:51:51.839Z,10.90
2023-03-17T00:54:20.894Z,10.90
2023-03-17T00:56:49.355Z,10.90
2023-03-17T00:59:25.386Z,10.90
2023-03-17T01:01:52.185Z,11.00
2023-03-17T01:06:49.365Z,10.80
2023-03-17T01:09:20.405Z,10.80
2023-03-17T01:14:15.729Z,10.80
2023-03-17T01:19:12.993Z,10.70
2023-03-17T01:24:08.357Z,10.70
2023-03-17T01:31:30.498Z,10.60
2023-03-17T01:33:58.054Z,10.60
2023-03-17T01:43:50.192Z,10.50
2023-03-17T01:46:25.513Z,10.50
2023-03-17T01:49:10.761Z,10.50
2023-03-17T01:52:02.567Z,10.50
2023-03-17T01:54:48.180Z,10.40
2023-03-17T01:57:15.012Z,10.50
2023-03-17T01:59:53.462Z,10.50
2023-03-17T02:02:32.335Z,10.40
2023-03-17T02:07:28.042Z,10.40
2023-03-17T02:09:57.131Z,10.40
2023-03-17T02:12:27.100Z,10.40
2023-03-17T02:17:24.001Z,10.30
2023-03-17T02:22:20.034Z,10.30
2023-03-17T02:24:59.509Z,10.30
2023-03-17T02:27:34.814Z,10.30
2023-03-17T02:42:20.193Z,10.10
2023-03-17T02:47:14.774Z,10.10
2023-03-17T02:49:43.092Z,10.00
2023-03-17T02:52:09.999Z,10.00
2023-03-17T02:57:04.478Z,10.00
2023-03-17T03:04:26.309Z,9.90
2023-03-17T03:13:33.684Z,9.80
2023-03-17T03:16:00.697Z,9.80
2023-03-17T03:25:49.766Z,9.70
2023-03-17T03:30:44.789Z,9.70
2023-03-17T03:33:13.358Z,9.60
2023-03-17T03:35:40.766Z,9.60
2023-03-17T03:38:08.788Z,9.60
2023-03-17T03:40:37.087Z,9.60
2023-03-17T03:43:19.855Z,9.50
2023-03-17T03:48:16.827Z,9.50
2023-03-17T03:50:43.839Z,9.50
2023-03-17T04:03:01.672Z,9.30
2023-03-17T04:05:28.643Z,9.30
2023-03-17T04:10:23.301Z,9.30
2023-03-17T04:12:50.370Z,9.20
2023-03-17T04:15:19.776Z,9.20
2023-03-17T04:20:15.441Z,9.20
2023-03-17T04:22:43.005Z,9.10
2023-03-17T04:25:13.554Z,9.10
2023-03-17T04:27:41.866Z,9.10
2023-03-17T04:30:13.579Z,9.10
2023-03-17T04:32:41.694Z,9.00
2023-03-17T04:35:19.492Z,9.00
2023-03-17T04:40:16.173Z,9.00
2023-03-17T04:45:12.706Z,8.90
2023-03-17T04:50:08.950Z,8.90
2023-03-17T04:52:36.936Z,8.90
2023-03-17T04:55:05.615Z,8.80
2023-03-17T04:57:32.606Z,8.80
2023-03-17T05:00:03.466Z,8.80
2023-03-17T05:04:57.978Z,8.70
2023-03-17T05:12:19.405Z,8.60
2023-03-17T05:14:46.710Z,8.60
2023-03-17T05:19:41.097Z,8.60
2023-03-17T05:29:30.186Z,8.50
2023-03-17T05:41:47.101Z,8.30
2023-03-17T05:44:14.561Z,8.30
2023-03-17T05:54:04.473Z,8.20
2023-03-17T05:56:33.775Z,8.20
2023-03-17T05:59:03.223Z,8.20
2023-03-17T06:06:28.704Z,8.20
2023-03-17T06:08:56.729Z,8.10
2023-03-17T06:28:38.762Z,8.10
2023-03-17T06:33:35.903Z,8.00
2023-03-17T06:36:03.319Z,8.10
2023-03-17T07:13:02.412Z,8.30
2023-03-17T07:15:34.719Z,8.40
2023-03-17T07:18:02.476Z,8.40
2023-03-17T07:25:24.513Z,8.60
2023-03-17T07:30:19.365Z,8.70
2023-03-17T07:32:47.911Z,8.80
2023-03-17T07:35:16.352Z,8.80
2023-03-17T07:45:07.921Z,9.00
2023-03-17T07:59:52.810Z,9.40
2023-03-17T08:02:21.147Z,9.50
2023-03-17T08:04:48.122Z,9.50
2023-03-17T08:14:37.741Z,9.80
2023-03-17T08:19:32.151Z,10.00
2023-03-17T08:29:21.305Z,10.30
2023-03-17T08:36:43.494Z,10.70
2023-03-17T08:41:38.564Z,10.90
2023-03-17T08:44:05.816Z,11.00
2023-03-17T08:46:33.112Z,11.00
2023-03-17T08:49:00.952Z,11.20
2023-03-17T08:51:31.258Z,11.20
2023-03-17T08:53:59.000Z,11.30
2023-03-17T09:03:52.768Z,11.50
2023-03-17T09:06:20.207Z,11.60
2023-03-17T09:11:20.341Z,11.80
2023-03-17T09:13:47.838Z,11.90
2023-03-17T09:16:16.218Z,12.00
2023-03-17T09:21:12.550Z,12.10
2023-03-17T09:23:39.863Z,12.20
2023-03-17T09:31:06.354Z,12.40
2023-03-17T09:33:33.242Z,12.50
2023-03-17T09:38:28.033Z,12.50
2023-03-17T09:41:04.982Z,12.70
2023-03-17T09:46:25.062Z,12.90
2023-03-17T09:49:22.820Z,13.00
2023-03-17T09:51:50.094Z,13.10
2023-03-17T09:54:49.610Z,13.20
2023-03-17T09:57:32.978Z,13.20
2023-03-17T10:00:09.870Z,13.20
2023-03-17T10:02:37.861Z,13.40
2023-03-17T10:05:22.264Z,13.50
2023-03-17T10:07:49.576Z,13.60
2023-03-17T10:10:29.370Z,13.90
2023-03-17T10:13:10.523Z,16.90
2023-03-17T10:15:55.528Z,13.90
2023-03-17T10:18:27.934Z,16.50
2023-03-17T10:21:02.274Z,14.10
2023-03-17T10:23:33.505Z,14.20
2023-03-17T10:26:17.306Z,14.30
2023-03-17T10:28:44.306Z,14.40
2023-03-17T10:31:16.555Z,14.40
2023-03-17T10:33:46.959Z,14.50
2023-03-17T10:36:16.701Z,14.60
2023-03-17T10:38:56.494Z,14.70
2023-03-17T10:41:23.432Z,14.80
2023-03-17T10:43:53.683Z,14.90
2023-03-17T10:46:25.833Z,15.10
2023-03-17T10:49:02.182Z,15.20
2023-03-17T10:51:32.493Z,15.30
2023-03-17T10:54:17.774Z,15.30
2023-03-17T10:56:48.898Z,15.50
2023-03-17T10:59:32.510Z,15.60
2023-03-17T11:02:01.442Z,15.70
2023-03-17T11:04:32.137Z,15.60
2023-03-17T11:07:04.969Z,15.80
2023-03-17T11:09:36.798Z,15.90
2023-03-17T11:12:08.969Z,16.00
2023-03-17T11:17:16.424Z,16.10
2023-03-17T11:20:04.846Z,12.30
2023-03-17T11:22:40.141Z,12.30
2023-03-17T11:25:19.665Z,16.30
2023-03-17T11:30:34.038Z,16.40
2023-03-17T11:33:38.443Z,16.40
2023-03-17T11:36:43.386Z,16.50
2023-03-17T11:39:17.153Z,16.60
2023-03-17T11:41:59.559Z,16.60
2023-03-17T11:47:05.277Z,16.80
2023-03-17T11:49:37.661Z,16.90
2023-03-17T11:52:28.580Z,16.90
2023-03-17T11:55:21.572Z,17.00
2023-03-17T11:58:01.505Z,17.10
2023-03-17T12:00:43.941Z,17.20
2023-03-17T12:03:25.398Z,17.20
2023-03-17T12:05:58.240Z,17.40
2023-03-17T12:08:40.836Z,17.40
2023-03-17T12:11:12.355Z,17.50
2023-03-17T12:16:20.254Z,17.70
2023-03-17T12:19:23.266Z,17.70
2023-03-17T12:21:59.412Z,17.80
2023-03-17T12:24:40.363Z,18.10
2023-03-17T12:27:32.038Z,18.10
2023-03-17T12:30:05.434Z,18.20
2023-03-17T12:32:44.019Z,15.10
2023-03-17T12:35:32.016Z,18.30
2023-03-17T12:38:01.444Z,18.40
2023-03-17T12:40:36.581Z,18.30
2023-03-17T12:43:27.741Z,18.60
2023-03-17T12:46:16.079Z,18.60
2023-03-17T12:49:04.943Z,18.70
2023-03-17T12:52:14.391Z,18.80
2023-03-17T12:54:46.735Z,18.90
2023-03-17T12:57:24.272Z,15.10
2023-03-17T13:00:05.659Z,19.00
2023-03-17T13:02:41.272Z,19.10
2023-03-17T13:05:16.544Z,19.20
2023-03-17T13:07:51.492Z,19.20
2023-03-17T13:10:42.896Z,15.40
2023-03-17T13:13:41.271Z,19.40
2023-03-17T13:16:28.052Z,19.40
2023-03-17T13:19:14.644Z,19.50
2023-03-17T13:21:50.622Z,19.50
2023-03-17T13:24:18.030Z,19.60
2023-03-17T13:27:01.988Z,19.70
2023-03-17T13:29:35.487Z,19.70
2023-03-17T13:32:26.819Z,19.60
2023-03-17T13:35:13.394Z,19.70
2023-03-17T13:38:09.854Z,19.60
2023-03-17T13:40:55.849Z,19.60
2023-03-17T13:43:43.493Z,19.60
2023-03-17T13:46:34.096Z,19.60
2023-03-17T13:49:26.763Z,19.50
2023-03-17T13:52:15.636Z,19.50
2023-03-17T13:54:49.677Z,19.50
2023-03-17T13:57:35.314Z,19.50
2023-03-17T14:00:15.107Z,19.50
2023-03-17T14:02:43.520Z,19.50
2023-03-17T14:05:29.781Z,19.50
2023-03-17T14:08:03.792Z,19.50
2023-03-17T14:10:32.657Z,19.50
2023-03-17T14:13:08.587Z,19.50
2023-03-17T14:15:56.351Z,19.50
2023-03-17T14:18:51.934Z,19.50
2023-03-17T14:21:24.423Z,19.50
2023-03-17T14:24:01.447Z,19.60
2023-03-17T14:26:31.247Z,19.50
2023-03-17T14:29:04.845Z,19.50
2023-03-17T14:31:31.986Z,19.50
2023-03-17T14:34:00.454Z,19.50
2023-03-17T14:36:28.780Z,19.50
2023-03-17T14:38:57.275Z,19.50
2023-03-17T14:41:28.897Z,19.50
2023-03-17T14:44:00.394Z,19.50
2023-03-17T14:46:32.032Z,19.50
2023-03-17T14:49:00.818Z,19.50
2023-03-17T14:54:00.136Z,19.50
2023-03-17T14:56:35.006Z,19.40
2023-03-17T14:59:18.519Z,19.30
2023-03-17T15:01:48.487Z,19.40
2023-03-17T15:04:17.119Z,19.30
2023-03-17T15:06:56.311Z,19.30
2023-03-17T15:09:40.763Z,15.40
2023-03-17T15:12:18.946Z,19.30
2023-03-17T15:14:46.544Z,19.20
2023-03-17T15:17:28.783Z,19.20
2023-03-17T15:19:59.914Z,19.20
2023-03-17T15:22:36.156Z,19.10
2023-03-17T15:25:38.709Z,19.10
2023-03-17T15:28:16.508Z,19.10
2023-03-17T15:30:48.192Z,19.10
2023-03-17T15:33:30.552Z,19.10
2023-03-17T15:36:00.019Z,19.00
2023-03-17T15:40:54.562Z,19.00
2023-03-17T15:43:22.600Z,19.00
2023-03-17T15:46:03.321Z,19.00
2023-03-17T15:48:35.156Z,19.00
2023-03-17T15:51:04.511Z,19.00
2023-03-17T15:53:32.201Z,19.00
2023-03-17T16:01:00.068Z,18.90
2023-03-17T16:03:29.332Z,18.80
2023-03-17T16:08:24.897Z,18.80
2023-03-17T16:13:19.691Z,18.70
2023-03-17T16:15:58.208Z,18.70
2023-03-17T16:18:33.522Z,18.70
2023-03-17T16:21:01.422Z,18.60
2023-03-17T16:23:32.166Z,18.60
2023-03-17T16:28:43.086Z,18.60
2023-03-17T16:31:29.283Z,18.50
2023-03-17T16:33:57.072Z,18.50
2023-03-17T16:36:25.565Z,14.60
2023-03-17T16:38:52.629Z,18.40
2023-03-17T16:41:25.561Z,18.40
2023-03-17T16:43:57.768Z,18.40
2023-03-17T16:46:27.238Z,18.40
2023-03-17T16:48:54.256Z,18.30
2023-03-17T16:51:21.233Z,18.30
2023-03-17T16:53:48.386Z,18.30
2023-03-17T16:56:21.447Z,18.20
2023-03-17T16:58:49.188Z,18.20
2023-03-17T17:01:27.840Z,18.10
2023-03-17T17:03:55.750Z,18.10
2023-03-17T17:06:24.027Z,18.10
2023-03-17T17:08:51.277Z,18.00
2023-03-17T17:11:19.944Z,18.00
2023-03-17T17:13:48.710Z,18.00
2023-03-17T17:16:29.169Z,17.90
2023-03-17T17:21:23.631Z,17.90
2023-03-17T17:33:42.702Z,17.70
2023-03-17T17:36:15.126Z,17.60
2023-03-17T17:38:42.944Z,17.60
2023-03-17T17:41:12.077Z,17.50
2023-03-17T17:43:39.593Z,17.50
2023-03-17T17:46:18.549Z,17.50
2023-03-17T17:48:46.554Z,17.40
2023-03-17T17:51:13.648Z,17.40
2023-03-17T17:56:11.052Z,17.30
2023-03-17T17:58:37.834Z,17.20
2023-03-17T18:01:05.580Z,17.20
2023-03-17T18:03:32.518Z,17.10
2023-03-17T18:06:00.926Z,14.20
2023-03-17T18:08:27.806Z,17.10
2023-03-17T18:10:56.666Z,17.00
2023-03-17T18:13:23.846Z,17.00
2023-03-17T18:18:18.980Z,16.90
2023-03-17T18:20:46.144Z,16.90
2023-03-17T18:33:10.770Z,16.70
2023-03-17T18:35:38.386Z,16.60
2023-03-17T18:45:29.039Z,16.50
2023-03-17T18:47:56.128Z,16.50
2023-03-17T18:57:47.272Z,16.30
2023-03-17T19:00:18.735Z,16.30
2023-03-17T19:02:46.564Z,16.30
2023-03-17T19:05:14.548Z,16.30
2023-03-17T19:07:42.258Z,16.20
2023-03-17T19:10:12.234Z,16.20
2023-03-17T19:15:08.902Z,16.20
2023-03-17T19:20:04.382Z,16.10
2023-03-17T19:29:54.323Z,16.10
2023-03-17T19:32:21.533Z,16.00
2023-03-17T19:42:12.795Z,15.90
2023-03-17T19:44:40.175Z,15.90
2023-03-17T19:47:08.386Z,15.90
2023-03-17T19:49:37.595Z,15.90
2023-03-17T19:52:06.422Z,15.90
2023-03-17T19:54:33.884Z,15.80
2023-03-17T20:01:55.869Z,15.80
2023-03-17T20:09:24.699Z,15.80
2023-03-17T20:14:20.969Z,15.70
2023-03-17T20:16:48.365Z,15.70
2023-03-17T20:19:16.424Z,15.70
2023-03-17T20:21:43.948Z,15.70
2023-03-17T20:24:12.895Z,15.70
2023-03-17T20:26:41.302Z,15.60
2023-03-17T20:31:38.554Z,15.60
2023-03-17T20:39:00.446Z,15.60
2023-03-17T20:46:24.259Z,15.50
2023-03-17T20:51:26.492Z,15.50
2023-03-17T20:53:55.180Z,15.50
2023-03-17T20:56:24.461Z,15.50
2023-03-17T20:58:53.289Z,15.50
2023-03-17T21:01:21.766Z,15.50
2023-03-17T21:03:49.220Z,15.40
2023-03-17T21:06:16.756Z,15.40
2023-03-17T21:08:43.991Z,15.40
2023-03-17T21:11:17.960Z,15.40
2023-03-17T21:16:21.514Z,15.30
2023-03-17T21:18:48.452Z,15.70
2023-03-17T21:23:43.926Z,15.30
2023-03-17T21:26:11.294Z,15.30
2023-03-17T21:28:41.348Z,15.30
2023-03-17T21:31:09.871Z,15.30
2023-03-17T21:33:37.257Z,15.30
2023-03-17T21:36:04.885Z,15.30
2023-03-17T21:38:32.183Z,15.20
2023-03-17T21:41:17.534Z,15.20
2023-03-17T21:46:14.714Z,15.30
2023-03-17T21:51:08.870Z,15.20
2023-03-17T22:10:51.663Z,15.20
2023-03-17T22:13:18.618Z,15.30
2023-03-17T22:18:12.843Z,15.30
2023-03-17T22:20:39.740Z,15.20
2023-03-17T22:25:33.864Z,15.20
2023-03-17T22:30:28.235Z,15.20
2023-03-17T22:32:55.307Z,15.20
2023-03-17T22:35:23.445Z,15.20
2023-03-17T22:40:19.096Z,15.10
2023-03-17T22:45:13.605Z,15.10
2023-03-17T22:50:08.686Z,15.20
2023-03-17T22:57:31.452Z,15.10
2023-03-17T22:59:59.171Z,15.10
2023-03-17T23:04:53.597Z,15.20
2023-03-17T23:14:43.742Z,15.10
2023-03-17T23:19:38.072Z,15.10
2023-03-17T23:22:04.956Z,15.10
2023-03-17T23:29:28.077Z,15.10
2023-03-17T23:46:41.110Z,15.10
2023-03-17T23:56:37.025Z,15.00
2023-03-17T23:59:04.143Z,15.10
